Jimmy Lake, Canada
Current Conditions -  °F | °C
As of 1:00 AM on Thursday 23 Oct 2014 (Local Time) from CWHN Reporting Station
Clear Clear  
Wind Chill:   Ceiling: Unl
Heat Index:   Visibility: 9mi
Dew Point:   Wind: 7mph
Humidity: 87%   Direction: 40°NE
Pressure: 29.63"   Gusts: NA
Location:  54.9°N, 109.97°W
Report Text: CWHN 230700Z AUTO 04006KT 9SM CLR 03/01 A2963 RMK SLP049
Loading
Personal Weather Stations






























Interactive Weather Map
Tropical Storm Tracking
New forecast layout! Learn more

10-Day Weather Forecast

Advertisements
Track Severe Weather on mobile